Gulf Breeze, FL (32563)

9:29 AM CDT on September 22, 2014 (GMT -0500)
KFLGULFB6 | Change Station
CLOSE
Current Station
Personal Weather Station
Location: Navarre, FL
Elevation: 34 ft
Nearby Weather Stations

Elev 34 ft 30.40 °N, 86.93 °W | Updated 19 seconds ago

Clear
Clear
82.4 °F
Feels Like 87 °F
N
5.4
Wind Variable Wind from NW
Gusts 9.8 mph

Today
High -- | Low -- °F
--% Chance of Precip.
Yesterday
High -- | Low -- °F
Precip. -- in
6:36 AM 6:44 PM
Waning Crescent, 3% visible
Pressure 30.04 in
Visibility 10.0 miles
Clouds Clear
Heat Index 87 °F
Dew Point 70 °F
Humidity 67%
Rainfall 0.00 in
Snow Depth Not available.
UV 0.0 out of 12
Pollen 8.90 out of 12
Ozone Good
PM2.5 Moderate
Flu Activity Not available.
METAR KPNS 221353Z 34009KT 10SM CLR 26/21 A3004 RMK AO2 SLP173 T02560211

More Conditions Fewer Conditions

Pressure 30.04 in
Visibility 10.0 miles
Clouds Clear
Heat Index 87 °F
Dew Point 70 °F
Humidity 67%
Rainfall 0.00 in
Snow Depth Not available.
UV 0.0 out of 12
Pollen 8.90 out of 12
Ozone Good
PM2.5 Moderate
Flu Activity Not available.
METAR KPNS 221353Z 34009KT 10SM CLR 26/21 A3004 RMK AO2 SLP173 T02560211

More Conditions Fewer Conditions

10-Day Weather Forecast

Almanac

Astronomy

Sep. 22, 2014 Rise Set
Actual Time 6:36 AM CDT 6:44 PM CDT
Civil Twilight 6:12 AM CDT 7:08 PM CDT
Nautical Twilight 5:44 AM CDT 7:36 PM CDT
Astronomical Twilight 5:16 AM CDT 8:04 PM CDT
Moon 5:09 AM CDT 5:49 PM CDT
Length of Visible Light 12h 56m
Length of Day
12h 08m
Tomorrow will be 1m 50s shorter.
Waning Crescent, 3% of the Moon is Illuminated
Today
Waning Crescent
Sep 24
New
Oct 1
First Quarter
Oct 8
Full
Oct 15
Last Quarter

Today's Extremes

State Highs State Lows

Community

WunderPhotos

Upload Photos

1,755,444 photos uploaded!

WunderBlogs® & News

By Dr. Jeff Masters
Director of Meteorology, Weather Underground
By Kari Strenfel
Meteorologist, Weather Underground
By Christopher C. Burt
Weather Historian, Weather Underground
September 22, 2014
September 22, 2014
September 22, 2014

Nearby

Air Quality

  Air Quality AQ Index Pollutant
Yesterday Good
OZONE
Yesterday Good
PM2.5
Current Moderate
PM2.5
Current Good
OZONE
Monday Moderate
OZONE

Snow Depth

Station Depth Elevation
No new snow has been reported.

Earthquake Activity

City Distance Mag. Time & Date
No recent earthquake activity has been reported nearby.
Minimum magnitude displayed is 2.5.

Coastal Water Temperatures

Place Temperature
No Stations Reporting

Nearby Weather Stations